Findhorn, United Kingdom
Current Conditions -  °F | °C
As of 8:50 AM on Thursday 18 Dec 2014 (Local Time) from EGQK Reporting Station
Overcast Overcast  
Wind Chill:   Ceiling: 9000
Heat Index:   Visibility: 6mi
Dew Point:   Wind: 17mph
Humidity: 81%   Direction: 220°SW
Pressure: 29.23"   Gusts: NA
Location:  57.66°N, 3.61°W
Report Text: EGQK 180850Z AUTO 22015KT 9999 OVC090/// 07/04 Q0990 RERA
Loading
Personal Weather Stations






























Interactive Weather Map New forecast layout! Learn more

10-Day Weather Forecast

Advertisements
Track Severe Weather on mobile